sensor_id;sensor_type;location;lat;lon;timestamp;temperature;humidity
18741;DHT22;9499;52.472;13.448;2023-09-19T00:01:57;18.90;1.00
18741;DHT22;9499;52.472;13.448;2023-09-19T00:04:25;18.90;1.00
18741;DHT22;9499;52.472;13.448;2023-09-19T00:06:54;18.80;1.00
18741;DHT22;9499;52.472;13.448;2023-09-19T00:09:21;18.80;1.00
18741;DHT22;9499;52.472;13.448;2023-09-19T00:11:51;18.80;1.00
18741;DHT22;9499;52.472;13.448;2023-09-19T00:14:18;18.80;1.00
18741;DHT22;9499;52.472;13.448;2023-09-19T00:16:44;18.80;1.00
18741;DHT22;9499;52.472;13.448;2023-09-19T00:19:11;18.70;1.00
18741;DHT22;9499;52.472;13.448;2023-09-19T00:21:39;18.70;1.00
18741;DHT22;9499;52.472;13.448;2023-09-19T00:24:07;18.70;1.00
18741;DHT22;9499;52.472;13.448;2023-09-19T00:26:34;18.70;1.00
18741;DHT22;9499;52.472;13.448;2023-09-19T00:29:01;18.70;1.00
18741;DHT22;9499;52.472;13.448;2023-09-19T00:31:34;18.70;1.00
18741;DHT22;9499;52.472;13.448;2023-09-19T00:34:03;18.70;1.00
18741;DHT22;9499;52.472;13.448;2023-09-19T00:36:32;18.70;1.00
18741;DHT22;9499;52.472;13.448;2023-09-19T00:39:02;18.70;1.00
18741;DHT22;9499;52.472;13.448;2023-09-19T00:41:30;18.60;1.00
18741;DHT22;9499;52.472;13.448;2023-09-19T00:43:57;18.70;1.00
18741;DHT22;9499;52.472;13.448;2023-09-19T00:46:25;18.60;1.00
18741;DHT22;9499;52.472;13.448;2023-09-19T00:48:52;18.50;1.00
18741;DHT22;9499;52.472;13.448;2023-09-19T00:51:20;18.50;1.00
18741;DHT22;9499;52.472;13.448;2023-09-19T00:53:47;18.50;1.00
18741;DHT22;9499;52.472;13.448;2023-09-19T00:56:16;18.50;1.00
18741;DHT22;9499;52.472;13.448;2023-09-19T00:58:46;18.50;1.00
18741;DHT22;9499;52.472;13.448;2023-09-19T01:01:13;18.40;1.00
18741;DHT22;9499;52.472;13.448;2023-09-19T01:03:41;18.40;1.00
18741;DHT22;9499;52.472;13.448;2023-09-19T01:06:10;18.40;1.00
18741;DHT22;9499;52.472;13.448;2023-09-19T01:08:37;18.40;3.30
18741;DHT22;9499;52.472;13.448;2023-09-19T01:11:11;18.30;10.00
18741;DHT22;9499;52.472;13.448;2023-09-19T01:13:48;18.30;6.70
18741;DHT22;9499;52.472;13.448;2023-09-19T01:16:27;18.30;4.90
18741;DHT22;9499;52.472;13.448;2023-09-19T01:19:01;18.40;1.00
18741;DHT22;9499;52.472;13.448;2023-09-19T01:21:43;18.40;1.00
18741;DHT22;9499;52.472;13.448;2023-09-19T01:24:25;18.30;2.20
18741;DHT22;9499;52.472;13.448;2023-09-19T01:27:23;18.30;5.70
18741;DHT22;9499;52.472;13.448;2023-09-19T01:30:01;18.20;13.00
18741;DHT22;9499;52.472;13.448;2023-09-19T01:32:29;18.20;13.90
18741;DHT22;9499;52.472;13.448;2023-09-19T01:34:58;18.20;14.70
18741;DHT22;9499;52.472;13.448;2023-09-19T01:37:30;18.20;12.00
18741;DHT22;9499;52.472;13.448;2023-09-19T01:39:59;18.20;9.70
18741;DHT22;9499;52.472;13.448;2023-09-19T01:42:40;18.20;10.40
18741;DHT22;9499;52.472;13.448;2023-09-19T01:45:12;18.20;7.60
18741;DHT22;9499;52.472;13.448;2023-09-19T01:47:46;18.20;8.10
18741;DHT22;9499;52.472;13.448;2023-09-19T01:50:20;18.20;10.10
18741;DHT22;9499;52.472;13.448;2023-09-19T01:52:53;18.20;15.20
18741;DHT22;9499;52.472;13.448;2023-09-19T01:55:21;18.20;12.60
18741;DHT22;9499;52.472;13.448;2023-09-19T01:58:01;18.20;10.60
18741;DHT22;9499;52.472;13.448;2023-09-19T02:00:32;18.20;1.30
18741;DHT22;9499;52.472;13.448;2023-09-19T02:03:04;18.20;5.80
18741;DHT22;9499;52.472;13.448;2023-09-19T02:05:32;18.20;1.00
18741;DHT22;9499;52.472;13.448;2023-09-19T02:08:00;18.20;2.40
18741;DHT22;9499;52.472;13.448;2023-09-19T02:10:31;18.20;1.00
18741;DHT22;9499;52.472;13.448;2023-09-19T02:12:59;18.10;2.20
18741;DHT22;9499;52.472;13.448;2023-09-19T02:15:32;18.10;11.80
18741;DHT22;9499;52.472;13.448;2023-09-19T02:17:59;18.10;17.80
18741;DHT22;9499;52.472;13.448;2023-09-19T02:20:28;18.10;23.70
18741;DHT22;9499;52.472;13.448;2023-09-19T02:22:55;18.10;15.80
18741;DHT22;9499;52.472;13.448;2023-09-19T02:25:23;18.10;15.40
18741;DHT22;9499;52.472;13.448;2023-09-19T02:27:52;18.10;10.50
18741;DHT22;9499;52.472;13.448;2023-09-19T02:30:19;18.00;19.00
18741;DHT22;9499;52.472;13.448;2023-09-19T02:32:52;18.00;28.50
18741;DHT22;9499;52.472;13.448;2023-09-19T02:35:18;18.00;39.50
18741;DHT22;9499;52.472;13.448;2023-09-19T02:37:48;18.00;39.20
18741;DHT22;9499;52.472;13.448;2023-09-19T02:40:15;18.00;39.40
18741;DHT22;9499;52.472;13.448;2023-09-19T02:42:45;18.00;40.50
18741;DHT22;9499;52.472;13.448;2023-09-19T02:45:16;18.00;40.60
18741;DHT22;9499;52.472;13.448;2023-09-19T02:47:44;17.90;41.20
18741;DHT22;9499;52.472;13.448;2023-09-19T02:50:13;17.90;50.90
18741;DHT22;9499;52.472;13.448;2023-09-19T02:52:41;17.90;50.80
18741;DHT22;9499;52.472;13.448;2023-09-19T02:55:09;17.80;60.60
18741;DHT22;9499;52.472;13.448;2023-09-19T02:57:35;17.80;69.00
18741;DHT22;9499;52.472;13.448;2023-09-19T03:00:06;17.80;62.00
18741;DHT22;9499;52.472;13.448;2023-09-19T03:02:36;17.90;62.60
18741;DHT22;9499;52.472;13.448;2023-09-19T03:05:04;17.90;61.30
18741;DHT22;9499;52.472;13.448;2023-09-19T03:07:34;17.90;56.10
18741;DHT22;9499;52.472;13.448;2023-09-19T03:10:03;17.90;51.30
18741;DHT22;9499;52.472;13.448;2023-09-19T03:12:30;17.90;43.50
18741;DHT22;9499;52.472;13.448;2023-09-19T03:14:59;18.00;40.10
18741;DHT22;9499;52.472;13.448;2023-09-19T03:17:27;18.00;29.80
18741;DHT22;9499;52.472;13.448;2023-09-19T03:19:56;18.00;22.30
18741;DHT22;9499;52.472;13.448;2023-09-19T03:22:24;18.00;16.50
18741;DHT22;9499;52.472;13.448;2023-09-19T03:24:54;18.00;3.30
18741;DHT22;9499;52.472;13.448;2023-09-19T03:27:26;18.00;1.00
18741;DHT22;9499;52.472;13.448;2023-09-19T03:29:56;18.00;1.00
18741;DHT22;9499;52.472;13.448;2023-09-19T03:32:23;18.10;1.00
18741;DHT22;9499;52.472;13.448;2023-09-19T03:34:50;18.10;1.00
18741;DHT22;9499;52.472;13.448;2023-09-19T03:37:17;18.10;1.00
18741;DHT22;9499;52.472;13.448;2023-09-19T03:39:44;18.10;1.00
18741;DHT22;9499;52.472;13.448;2023-09-19T03:42:16;18.10;1.00
18741;DHT22;9499;52.472;13.448;2023-09-19T03:44:50;18.10;1.00
18741;DHT22;9499;52.472;13.448;2023-09-19T03:47:17;18.10;1.00
18741;DHT22;9499;52.472;13.448;2023-09-19T03:49:45;18.10;1.00
18741;DHT22;9499;52.472;13.448;2023-09-19T03:52:12;18.00;1.00
18741;DHT22;9499;52.472;13.448;2023-09-19T03:54:39;18.00;1.00
18741;DHT22;9499;52.472;13.448;2023-09-19T03:57:07;18.00;1.00
18741;DHT22;9499;52.472;13.448;2023-09-19T03:59:35;17.90;1.00
18741;DHT22;9499;52.472;13.448;2023-09-19T04:02:03;17.90;1.00
18741;DHT22;9499;52.472;13.448;2023-09-19T04:04:37;17.90;1.00
18741;DHT22;9499;52.472;13.448;2023-09-19T04:07:03;17.90;1.00
18741;DHT22;9499;52.472;13.448;2023-09-19T04:09:30;17.80;1.00
18741;DHT22;9499;52.472;13.448;2023-09-19T04:11:57;17.80;1.00
18741;DHT22;9499;52.472;13.448;2023-09-19T04:14:24;17.80;1.00
18741;DHT22;9499;52.472;13.448;2023-09-19T04:16:54;17.80;1.00
18741;DHT22;9499;52.472;13.448;2023-09-19T04:19:22;17.80;1.00
18741;DHT22;9499;52.472;13.448;2023-09-19T04:21:49;17.80;1.00
18741;DHT22;9499;52.472;13.448;2023-09-19T04:24:18;17.80;1.00
18741;DHT22;9499;52.472;13.448;2023-09-19T04:26:45;17.70;1.00
18741;DHT22;9499;52.472;13.448;2023-09-19T04:29:15;17.70;1.00
18741;DHT22;9499;52.472;13.448;2023-09-19T04:31:45;17.70;1.00
18741;DHT22;9499;52.472;13.448;2023-09-19T04:34:13;17.70;99.90
18741;DHT22;9499;52.472;13.448;2023-09-19T04:36:42;17.70;99.90
18741;DHT22;9499;52.472;13.448;2023-09-19T04:39:09;17.60;99.90
18741;DHT22;9499;52.472;13.448;2023-09-19T04:41:38;17.60;99.90
18741;DHT22;9499;52.472;13.448;2023-09-19T04:44:06;17.60;99.90
18741;DHT22;9499;52.472;13.448;2023-09-19T04:46:32;17.60;99.90
18741;DHT22;9499;52.472;13.448;2023-09-19T04:48:59;17.60;99.90
18741;DHT22;9499;52.472;13.448;2023-09-19T04:51:27;17.70;99.90
18741;DHT22;9499;52.472;13.448;2023-09-19T04:53:59;17.70;99.90
18741;DHT22;9499;52.472;13.448;2023-09-19T04:56:27;17.60;99.90
18741;DHT22;9499;52.472;13.448;2023-09-19T04:58:57;17.60;99.90
18741;DHT22;9499;52.472;13.448;2023-09-19T05:01:25;17.60;99.90
18741;DHT22;9499;52.472;13.448;2023-09-19T05:03:52;17.60;99.90
18741;DHT22;9499;52.472;13.448;2023-09-19T05:06:19;17.60;99.90
18741;DHT22;9499;52.472;13.448;2023-09-19T05:08:49;17.60;99.90
18741;DHT22;9499;52.472;13.448;2023-09-19T05:11:17;17.60;99.90
18741;DHT22;9499;52.472;13.448;2023-09-19T05:13:44;17.50;99.90
18741;DHT22;9499;52.472;13.448;2023-09-19T05:16:12;17.50;99.90
18741;DHT22;9499;52.472;13.448;2023-09-19T05:18:39;17.50;99.90
18741;DHT22;9499;52.472;13.448;2023-09-19T05:21:06;17.50;99.90
18741;DHT22;9499;52.472;13.448;2023-09-19T05:23:34;17.40;99.90
18741;DHT22;9499;52.472;13.448;2023-09-19T05:26:07;17.40;99.90
18741;DHT22;9499;52.472;13.448;2023-09-19T05:28:35;17.40;99.90
18741;DHT22;9499;52.472;13.448;2023-09-19T05:31:05;17.40;99.90
18741;DHT22;9499;52.472;13.448;2023-09-19T05:33:33;17.40;99.90
18741;DHT22;9499;52.472;13.448;2023-09-19T05:35:59;17.40;96.90
18741;DHT22;9499;52.472;13.448;2023-09-19T05:38:26;17.40;2.80
18741;DHT22;9499;52.472;13.448;2023-09-19T05:40:53;17.50;1.00
18741;DHT22;9499;52.472;13.448;2023-09-19T05:43:22;17.50;1.00
18741;DHT22;9499;52.472;13.448;2023-09-19T05:45:49;17.50;1.00
18741;DHT22;9499;52.472;13.448;2023-09-19T05:48:17;17.50;1.00
18741;DHT22;9499;52.472;13.448;2023-09-19T05:50:46;17.50;1.00
18741;DHT22;9499;52.472;13.448;2023-09-19T05:53:14;17.40;1.00
18741;DHT22;9499;52.472;13.448;2023-09-19T05:55:41;17.40;1.00
18741;DHT22;9499;52.472;13.448;2023-09-19T05:58:08;17.30;17.50
18741;DHT22;9499;52.472;13.448;2023-09-19T06:00:36;17.40;1.00
18741;DHT22;9499;52.472;13.448;2023-09-19T06:03:05;17.40;1.00
18741;DHT22;9499;52.472;13.448;2023-09-19T06:05:33;17.40;1.00
18741;DHT22;9499;52.472;13.448;2023-09-19T06:08:06;17.40;1.00
18741;DHT22;9499;52.472;13.448;2023-09-19T06:10:33;17.50;1.00
18741;DHT22;9499;52.472;13.448;2023-09-19T06:13:00;17.50;1.00
18741;DHT22;9499;52.472;13.448;2023-09-19T06:15:30;17.50;1.00
18741;DHT22;9499;52.472;13.448;2023-09-19T06:17:59;17.50;1.00
18741;DHT22;9499;52.472;13.448;2023-09-19T06:20:28;17.50;1.00
18741;DHT22;9499;52.472;13.448;2023-09-19T06:22:55;17.50;1.00
18741;DHT22;9499;52.472;13.448;2023-09-19T06:25:22;17.50;1.00
18741;DHT22;9499;52.472;13.448;2023-09-19T06:27:51;17.40;1.00
18741;DHT22;9499;52.472;13.448;2023-09-19T06:30:19;17.40;1.00
18741;DHT22;9499;52.472;13.448;2023-09-19T06:32:47;17.40;1.00
18741;DHT22;9499;52.472;13.448;2023-09-19T06:35:16;17.40;1.00
18741;DHT22;9499;52.472;13.448;2023-09-19T06:37:44;17.50;1.00
18741;DHT22;9499;52.472;13.448;2023-09-19T06:40:12;17.50;1.00
18741;DHT22;9499;52.472;13.448;2023-09-19T06:42:40;17.60;1.00
18741;DHT22;9499;52.472;13.448;2023-09-19T06:45:08;17.50;1.00
18741;DHT22;9499;52.472;13.448;2023-09-19T06:47:37;17.60;1.00
18741;DHT22;9499;52.472;13.448;2023-09-19T06:50:05;17.60;99.90
18741;DHT22;9499;52.472;13.448;2023-09-19T06:52:38;17.60;99.90
18741;DHT22;9499;52.472;13.448;2023-09-19T06:55:05;17.60;99.90
18741;DHT22;9499;52.472;13.448;2023-09-19T06:57:32;17.60;99.90
18741;DHT22;9499;52.472;13.448;2023-09-19T06:59:59;17.70;99.90
18741;DHT22;9499;52.472;13.448;2023-09-19T07:02:27;17.70;99.90
18741;DHT22;9499;52.472;13.448;2023-09-19T07:04:54;17.70;94.10
18741;DHT22;9499;52.472;13.448;2023-09-19T07:07:20;17.80;99.90
18741;DHT22;9499;52.472;13.448;2023-09-19T07:09:49;17.80;1.00
18741;DHT22;9499;52.472;13.448;2023-09-19T07:12:19;17.90;1.00
18741;DHT22;9499;52.472;13.448;2023-09-19T07:14:46;18.00;1.00
18741;DHT22;9499;52.472;13.448;2023-09-19T07:17:13;18.10;1.00
18741;DHT22;9499;52.472;13.448;2023-09-19T07:19:44;18.20;99.90
18741;DHT22;9499;52.472;13.448;2023-09-19T07:22:11;18.30;99.90
18741;DHT22;9499;52.472;13.448;2023-09-19T07:24:38;18.40;1.00
18741;DHT22;9499;52.472;13.448;2023-09-19T07:27:07;18.50;1.00
18741;DHT22;9499;52.472;13.448;2023-09-19T07:29:34;18.60;1.00
18741;DHT22;9499;52.472;13.448;2023-09-19T07:32:01;18.70;99.90
18741;DHT22;9499;52.472;13.448;2023-09-19T07:34:28;18.80;1.00
18741;DHT22;9499;52.472;13.448;2023-09-19T07:36:55;18.70;99.90
18741;DHT22;9499;52.472;13.448;2023-09-19T07:39:22;18.80;99.90
18741;DHT22;9499;52.472;13.448;2023-09-19T07:41:49;18.80;3.90
18741;DHT22;9499;52.472;13.448;2023-09-19T07:44:20;18.90;1.00
18741;DHT22;9499;52.472;13.448;2023-09-19T07:46:46;18.90;1.00
18741;DHT22;9499;52.472;13.448;2023-09-19T07:49:17;18.90;99.90
18741;DHT22;9499;52.472;13.448;2023-09-19T07:51:45;18.80;99.90
18741;DHT22;9499;52.472;13.448;2023-09-19T07:54:13;18.80;1.00
18741;DHT22;9499;52.472;13.448;2023-09-19T07:56:40;18.80;99.90
18741;DHT22;9499;52.472;13.448;2023-09-19T07:59:11;18.90;99.90
18741;DHT22;9499;52.472;13.448;2023-09-19T08:01:40;18.80;99.90
18741;DHT22;9499;52.472;13.448;2023-09-19T08:04:09;18.80;4.90
18741;DHT22;9499;52.472;13.448;2023-09-19T08:06:36;18.80;96.30
18741;DHT22;9499;52.472;13.448;2023-09-19T08:09:03;18.70;99.90
18741;DHT22;9499;52.472;13.448;2023-09-19T08:11:33;18.70;99.90
18741;DHT22;9499;52.472;13.448;2023-09-19T08:13:59;18.70;1.00
18741;DHT22;9499;52.472;13.448;2023-09-19T08:16:26;18.70;99.90
18741;DHT22;9499;52.472;13.448;2023-09-19T08:18:54;18.80;99.90
18741;DHT22;9499;52.472;13.448;2023-09-19T08:21:21;18.80;1.00
18741;DHT22;9499;52.472;13.448;2023-09-19T08:23:49;18.90;1.00
18741;DHT22;9499;52.472;13.448;2023-09-19T08:26:15;19.00;1.00
18741;DHT22;9499;52.472;13.448;2023-09-19T08:28:43;19.00;1.00
18741;DHT22;9499;52.472;13.448;2023-09-19T08:31:09;18.80;1.00
18741;DHT22;9499;52.472;13.448;2023-09-19T08:33:37;18.70;99.90
18741;DHT22;9499;52.472;13.448;2023-09-19T08:36:06;18.60;1.00
18741;DHT22;9499;52.472;13.448;2023-09-19T08:38:35;18.60;1.00
18741;DHT22;9499;52.472;13.448;2023-09-19T08:41:05;18.50;99.90
18741;DHT22;9499;52.472;13.448;2023-09-19T08:43:32;18.50;1.00
18741;DHT22;9499;52.472;13.448;2023-09-19T08:46:09;18.60;99.90
18741;DHT22;9499;52.472;13.448;2023-09-19T08:48:42;18.70;75.40
18741;DHT22;9499;52.472;13.448;2023-09-19T08:51:18;18.70;1.00
18741;DHT22;9499;52.472;13.448;2023-09-19T08:53:51;18.60;1.00
18741;DHT22;9499;52.472;13.448;2023-09-19T08:56:18;18.60;1.00
18741;DHT22;9499;52.472;13.448;2023-09-19T08:58:49;18.80;1.00
18741;DHT22;9499;52.472;13.448;2023-09-19T09:01:21;18.80;1.00
18741;DHT22;9499;52.472;13.448;2023-09-19T09:03:52;18.80;1.00
18741;DHT22;9499;52.472;13.448;2023-09-19T09:06:23;18.80;1.00
18741;DHT22;9499;52.472;13.448;2023-09-19T09:08:50;18.80;89.70
18741;DHT22;9499;52.472;13.448;2023-09-19T09:11:17;18.80;1.00
18741;DHT22;9499;52.472;13.448;2023-09-19T09:13:47;18.80;99.90
18741;DHT22;9499;52.472;13.448;2023-09-19T09:16:15;18.80;1.00
18741;DHT22;9499;52.472;13.448;2023-09-19T09:18:44;18.80;1.00
18741;DHT22;9499;52.472;13.448;2023-09-19T09:21:11;18.80;1.00
18741;DHT22;9499;52.472;13.448;2023-09-19T09:23:40;18.70;1.00
18741;DHT22;9499;52.472;13.448;2023-09-19T09:26:07;18.70;1.00
18741;DHT22;9499;52.472;13.448;2023-09-19T09:28:34;18.70;1.00
18741;DHT22;9499;52.472;13.448;2023-09-19T09:31:04;18.70;1.00
18741;DHT22;9499;52.472;13.448;2023-09-19T09:33:33;18.60;1.00
18741;DHT22;9499;52.472;13.448;2023-09-19T09:36:02;18.70;99.90
18741;DHT22;9499;52.472;13.448;2023-09-19T09:38:45;18.80;99.90
18741;DHT22;9499;52.472;13.448;2023-09-19T09:41:15;18.80;99.90
18741;DHT22;9499;52.472;13.448;2023-09-19T09:43:53;18.80;99.90
18741;DHT22;9499;52.472;13.448;2023-09-19T09:46:20;18.90;96.90
18741;DHT22;9499;52.472;13.448;2023-09-19T09:49:05;19.10;52.40
18741;DHT22;9499;52.472;13.448;2023-09-19T09:51:59;19.30;1.00
18741;DHT22;9499;52.472;13.448;2023-09-19T09:54:32;19.40;1.00
18741;DHT22;9499;52.472;13.448;2023-09-19T09:57:04;19.70;99.90
18741;DHT22;9499;52.472;13.448;2023-09-19T09:59:49;19.90;99.90
18741;DHT22;9499;52.472;13.448;2023-09-19T10:02:17;20.20;99.90
18741;DHT22;9499;52.472;13.448;2023-09-19T10:04:52;20.50;1.00
18741;DHT22;9499;52.472;13.448;2023-09-19T10:07:25;20.50;1.00
18741;DHT22;9499;52.472;13.448;2023-09-19T10:09:59;20.50;1.00
18741;DHT22;9499;52.472;13.448;2023-09-19T10:12:37;20.70;1.00
18741;DHT22;9499;52.472;13.448;2023-09-19T10:15:06;20.70;1.00
18741;DHT22;9499;52.472;13.448;2023-09-19T10:17:36;20.70;1.00
18741;DHT22;9499;52.472;13.448;2023-09-19T10:20:05;20.30;1.00
18741;DHT22;9499;52.472;13.448;2023-09-19T10:22:46;20.00;1.00
18741;DHT22;9499;52.472;13.448;2023-09-19T10:25:25;19.90;1.00
18741;DHT22;9499;52.472;13.448;2023-09-19T10:27:54;20.10;1.00
18741;DHT22;9499;52.472;13.448;2023-09-19T10:30:23;20.30;1.00
18741;DHT22;9499;52.472;13.448;2023-09-19T10:32:58;20.70;1.00
18741;DHT22;9499;52.472;13.448;2023-09-19T10:35:29;21.10;99.90
18741;DHT22;9499;52.472;13.448;2023-09-19T10:38:00;21.40;99.90
18741;DHT22;9499;52.472;13.448;2023-09-19T10:40:29;21.60;99.90
18741;DHT22;9499;52.472;13.448;2023-09-19T10:43:01;21.90;99.90
18741;DHT22;9499;52.472;13.448;2023-09-19T10:45:31;21.80;99.90
18741;DHT22;9499;52.472;13.448;2023-09-19T10:47:58;21.70;99.90
18741;DHT22;9499;52.472;13.448;2023-09-19T10:50:25;21.90;99.90
18741;DHT22;9499;52.472;13.448;2023-09-19T10:52:54;21.90;90.50
18741;DHT22;9499;52.472;13.448;2023-09-19T10:55:29;21.80;53.60
18741;DHT22;9499;52.472;13.448;2023-09-19T10:57:57;21.40;38.60
18741;DHT22;9499;52.472;13.448;2023-09-19T11:01:00;21.30;37.70
18741;DHT22;9499;52.472;13.448;2023-09-19T11:03:39;21.50;6.00
18741;DHT22;9499;52.472;13.448;2023-09-19T11:06:11;21.50;1.00
18741;DHT22;9499;52.472;13.448;2023-09-19T11:08:55;21.60;1.00
18741;DHT22;9499;52.472;13.448;2023-09-19T11:11:47;21.90;1.00
18741;DHT22;9499;52.472;13.448;2023-09-19T11:14:43;21.80;1.00
18741;DHT22;9499;52.472;13.448;2023-09-19T11:17:41;21.50;1.00
18741;DHT22;9499;52.472;13.448;2023-09-19T11:20:20;21.40;1.00
18741;DHT22;9499;52.472;13.448;2023-09-19T11:23:18;21.50;1.00
18741;DHT22;9499;52.472;13.448;2023-09-19T11:25:43;21.40;1.00
18741;DHT22;9499;52.472;13.448;2023-09-19T11:28:34;21.20;1.00
18741;DHT22;9499;52.472;13.448;2023-09-19T11:31:41;21.10;1.00
18741;DHT22;9499;52.472;13.448;2023-09-19T11:34:37;21.10;1.00
18741;DHT22;9499;52.472;13.448;2023-09-19T11:40:10;21.00;1.00
18741;DHT22;9499;52.472;13.448;2023-09-19T11:42:42;21.20;1.00
18741;DHT22;9499;52.472;13.448;2023-09-19T11:48:08;21.80;1.00
18741;DHT22;9499;52.472;13.448;2023-09-19T11:50:35;21.80;1.00
18741;DHT22;9499;52.472;13.448;2023-09-19T11:53:10;21.80;1.00
18741;DHT22;9499;52.472;13.448;2023-09-19T11:55:37;21.80;1.00
18741;DHT22;9499;52.472;13.448;2023-09-19T11:58:04;21.50;1.00
18741;DHT22;9499;52.472;13.448;2023-09-19T12:00:31;21.20;1.00
18741;DHT22;9499;52.472;13.448;2023-09-19T12:03:04;21.00;1.00
18741;DHT22;9499;52.472;13.448;2023-09-19T12:05:36;20.90;1.00
18741;DHT22;9499;52.472;13.448;2023-09-19T12:08:03;21.10;1.00
18741;DHT22;9499;52.472;13.448;2023-09-19T12:10:34;21.10;1.00
18741;DHT22;9499;52.472;13.448;2023-09-19T12:13:10;21.30;1.00
18741;DHT22;9499;52.472;13.448;2023-09-19T12:15:41;21.40;1.00
18741;DHT22;9499;52.472;13.448;2023-09-19T12:18:10;21.20;1.00
18741;DHT22;9499;52.472;13.448;2023-09-19T12:20:53;21.10;1.00
18741;DHT22;9499;52.472;13.448;2023-09-19T12:23:20;21.20;1.00
18741;DHT22;9499;52.472;13.448;2023-09-19T12:25:46;21.30;1.00
18741;DHT22;9499;52.472;13.448;2023-09-19T12:28:14;21.10;1.00
18741;DHT22;9499;52.472;13.448;2023-09-19T12:30:42;21.30;1.00
18741;DHT22;9499;52.472;13.448;2023-09-19T12:33:15;21.30;1.00
18741;DHT22;9499;52.472;13.448;2023-09-19T12:35:44;21.30;1.00
18741;DHT22;9499;52.472;13.448;2023-09-19T12:38:23;21.30;1.00
18741;DHT22;9499;52.472;13.448;2023-09-19T12:41:03;21.50;1.00
18741;DHT22;9499;52.472;13.448;2023-09-19T12:43:35;21.80;1.00
18741;DHT22;9499;52.472;13.448;2023-09-19T12:46:05;21.90;1.00
18741;DHT22;9499;52.472;13.448;2023-09-19T12:48:31;22.00;1.00
18741;DHT22;9499;52.472;13.448;2023-09-19T12:51:01;22.20;1.00
18741;DHT22;9499;52.472;13.448;2023-09-19T12:53:46;22.10;1.00
18741;DHT22;9499;52.472;13.448;2023-09-19T12:56:20;22.00;1.00
18741;DHT22;9499;52.472;13.448;2023-09-19T12:58:50;22.10;1.00
18741;DHT22;9499;52.472;13.448;2023-09-19T13:01:19;22.00;1.00
18741;DHT22;9499;52.472;13.448;2023-09-19T13:06:45;22.00;1.00
18741;DHT22;9499;52.472;13.448;2023-09-19T13:09:19;21.80;1.00
18741;DHT22;9499;52.472;13.448;2023-09-19T13:11:47;21.70;1.00
18741;DHT22;9499;52.472;13.448;2023-09-19T13:14:18;21.80;1.00
18741;DHT22;9499;52.472;13.448;2023-09-19T13:16:56;21.70;1.00
18741;DHT22;9499;52.472;13.448;2023-09-19T13:19:36;21.60;1.00
18741;DHT22;9499;52.472;13.448;2023-09-19T13:22:03;21.50;1.00
18741;DHT22;9499;52.472;13.448;2023-09-19T13:24:31;21.40;1.00
18741;DHT22;9499;52.472;13.448;2023-09-19T13:27:00;21.50;1.00
18741;DHT22;9499;52.472;13.448;2023-09-19T13:29:29;21.60;1.00
18741;DHT22;9499;52.472;13.448;2023-09-19T13:31:55;21.60;1.00
18741;DHT22;9499;52.472;13.448;2023-09-19T13:34:22;21.50;1.00
18741;DHT22;9499;52.472;13.448;2023-09-19T13:36:50;21.40;1.00
18741;DHT22;9499;52.472;13.448;2023-09-19T13:39:17;21.20;1.00
18741;DHT22;9499;52.472;13.448;2023-09-19T13:41:47;21.30;1.00
18741;DHT22;9499;52.472;13.448;2023-09-19T13:44:14;21.40;1.00
18741;DHT22;9499;52.472;13.448;2023-09-19T13:46:42;21.30;1.00
18741;DHT22;9499;52.472;13.448;2023-09-19T13:49:11;21.40;1.00
18741;DHT22;9499;52.472;13.448;2023-09-19T13:51:38;21.20;1.00
18741;DHT22;9499;52.472;13.448;2023-09-19T13:54:08;21.20;1.00
18741;DHT22;9499;52.472;13.448;2023-09-19T13:56:37;21.10;1.00
18741;DHT22;9499;52.472;13.448;2023-09-19T13:59:05;21.00;1.00
18741;DHT22;9499;52.472;13.448;2023-09-19T14:01:32;21.10;1.00
18741;DHT22;9499;52.472;13.448;2023-09-19T14:03:59;21.20;1.00
18741;DHT22;9499;52.472;13.448;2023-09-19T14:06:25;21.30;1.00
18741;DHT22;9499;52.472;13.448;2023-09-19T14:08:52;21.20;1.00
18741;DHT22;9499;52.472;13.448;2023-09-19T14:11:19;21.40;1.00
18741;DHT22;9499;52.472;13.448;2023-09-19T14:13:45;21.40;1.00
18741;DHT22;9499;52.472;13.448;2023-09-19T14:16:17;21.50;1.00
18741;DHT22;9499;52.472;13.448;2023-09-19T14:18:44;21.50;1.00
18741;DHT22;9499;52.472;13.448;2023-09-19T14:21:12;21.50;1.00
18741;DHT22;9499;52.472;13.448;2023-09-19T14:23:40;21.60;1.00
18741;DHT22;9499;52.472;13.448;2023-09-19T14:26:07;21.60;1.00
18741;DHT22;9499;52.472;13.448;2023-09-19T14:28:34;21.50;1.00
18741;DHT22;9499;52.472;13.448;2023-09-19T14:31:04;21.50;1.00
18741;DHT22;9499;52.472;13.448;2023-09-19T14:33:34;21.50;1.00
18741;DHT22;9499;52.472;13.448;2023-09-19T14:36:04;21.40;1.00
18741;DHT22;9499;52.472;13.448;2023-09-19T14:38:32;21.20;1.00
18741;DHT22;9499;52.472;13.448;2023-09-19T14:41:01;21.30;1.00
18741;DHT22;9499;52.472;13.448;2023-09-19T14:43:27;21.20;1.00
18741;DHT22;9499;52.472;13.448;2023-09-19T14:45:55;21.10;1.00
18741;DHT22;9499;52.472;13.448;2023-09-19T14:48:23;21.10;1.00
18741;DHT22;9499;52.472;13.448;2023-09-19T14:51:02;21.20;1.00
18741;DHT22;9499;52.472;13.448;2023-09-19T14:53:30;21.20;1.00
18741;DHT22;9499;52.472;13.448;2023-09-19T14:55:59;21.20;1.00
18741;DHT22;9499;52.472;13.448;2023-09-19T14:58:28;21.30;1.00
18741;DHT22;9499;52.472;13.448;2023-09-19T15:01:02;21.30;1.00
18741;DHT22;9499;52.472;13.448;2023-09-19T15:03:30;21.20;1.00
18741;DHT22;9499;52.472;13.448;2023-09-19T15:06:01;21.30;1.00
18741;DHT22;9499;52.472;13.448;2023-09-19T15:08:27;21.30;1.00
18741;DHT22;9499;52.472;13.448;2023-09-19T15:10:54;21.30;1.00
18741;DHT22;9499;52.472;13.448;2023-09-19T15:13:21;21.30;1.00
18741;DHT22;9499;52.472;13.448;2023-09-19T15:15:49;21.20;1.00
18741;DHT22;9499;52.472;13.448;2023-09-19T15:18:16;21.30;1.00
18741;DHT22;9499;52.472;13.448;2023-09-19T15:20:43;21.30;1.00
18741;DHT22;9499;52.472;13.448;2023-09-19T15:23:11;21.40;1.00
18741;DHT22;9499;52.472;13.448;2023-09-19T15:25:38;21.40;1.00
18741;DHT22;9499;52.472;13.448;2023-09-19T15:28:06;21.40;1.00
18741;DHT22;9499;52.472;13.448;2023-09-19T15:30:37;21.40;1.00
18741;DHT22;9499;52.472;13.448;2023-09-19T15:33:04;21.40;1.00
18741;DHT22;9499;52.472;13.448;2023-09-19T15:35:31;21.30;1.00
18741;DHT22;9499;52.472;13.448;2023-09-19T15:37:57;21.30;1.00
18741;DHT22;9499;52.472;13.448;2023-09-19T15:40:27;21.40;1.00
18741;DHT22;9499;52.472;13.448;2023-09-19T15:42:55;21.50;1.00
18741;DHT22;9499;52.472;13.448;2023-09-19T15:45:23;21.60;1.00
18741;DHT22;9499;52.472;13.448;2023-09-19T15:47:50;21.60;1.00
18741;DHT22;9499;52.472;13.448;2023-09-19T15:50:17;21.70;1.00
18741;DHT22;9499;52.472;13.448;2023-09-19T15:52:44;21.70;1.00
18741;DHT22;9499;52.472;13.448;2023-09-19T15:55:11;21.80;1.00
18741;DHT22;9499;52.472;13.448;2023-09-19T15:57:39;21.90;1.00
18741;DHT22;9499;52.472;13.448;2023-09-19T16:00:06;22.00;1.00
18741;DHT22;9499;52.472;13.448;2023-09-19T16:02:38;22.10;1.00
18741;DHT22;9499;52.472;13.448;2023-09-19T16:05:05;22.10;1.00
18741;DHT22;9499;52.472;13.448;2023-09-19T16:07:32;21.90;1.00
18741;DHT22;9499;52.472;13.448;2023-09-19T16:09:59;21.90;1.00